createdAt,value
2023-04-13T00:02:51.280Z,99414.89
2023-04-13T00:06:52.099Z,99415.55
2023-04-13T00:10:52.862Z,99410.41
2023-04-13T00:14:53.276Z,99406.19
2023-04-13T00:18:52.686Z,99409.18
2023-04-13T00:22:53.253Z,99405.27
2023-04-13T00:26:50.234Z,99400.02
2023-04-13T00:30:51.178Z,99391.89
2023-04-13T00:34:47.884Z,99384.88
2023-04-13T00:38:47.920Z,99384.94
2023-04-13T00:42:50.453Z,99389.31
2023-04-13T00:46:46.934Z,99390.24
2023-04-13T00:50:52.469Z,99391.04
2023-04-13T00:54:49.349Z,99398.58
2023-04-13T00:58:52.795Z,99395.61
2023-04-13T01:02:53.240Z,99399.59
2023-04-13T01:06:54.511Z,99403.90
2023-04-13T01:10:55.203Z,99401.52
2023-04-13T01:14:57.386Z,99397.77
2023-04-13T01:18:54.241Z,99396.06
2023-04-13T01:22:55.115Z,99392.22
2023-04-13T01:26:51.718Z,99394.61
2023-04-13T01:30:52.515Z,99406.31
2023-04-13T01:34:51.768Z,99404.80
2023-04-13T01:38:53.369Z,99406.11
2023-04-13T01:42:50.964Z,99408.84
2023-04-13T01:46:52.946Z,99403.68
2023-04-13T01:51:19.049Z,99390.27
2023-04-13T01:55:23.261Z,99384.02
2023-04-13T01:59:25.212Z,99379.23
2023-04-13T02:03:25.622Z,99386.58
2023-04-13T02:07:22.647Z,99400.46
2023-04-13T02:11:24.058Z,99403.77
2023-04-13T02:15:21.378Z,99403.27
2023-04-13T02:19:22.576Z,99400.91
2023-04-13T02:23:31.683Z,99405.16
2023-04-13T02:27:32.058Z,99406.20
2023-04-13T02:31:29.179Z,99397.55
2023-04-13T02:35:29.561Z,99397.16
2023-04-13T02:39:26.332Z,99396.59
2023-04-13T02:43:29.403Z,99391.47
2023-04-13T02:47:26.428Z,99389.02
2023-04-13T02:51:28.123Z,99389.45
2023-04-13T02:55:25.703Z,99384.69
2023-04-13T02:59:32.080Z,99388.56
2023-04-13T03:03:33.060Z,99403.00
2023-04-13T03:07:32.539Z,99401.36
2023-04-13T03:11:33.311Z,99405.28
2023-04-13T03:15:41.373Z,99406.33
2023-04-13T03:19:43.837Z,99405.61
2023-04-13T03:23:42.275Z,99403.23
2023-04-13T03:27:44.889Z,99407.46
2023-04-13T03:31:41.451Z,99409.15
2023-04-13T03:35:43.309Z,99415.95
2023-04-13T03:39:49.472Z,99424.12
2023-04-13T03:43:53.637Z,99425.33
2023-04-13T03:47:52.792Z,99416.91
2023-04-13T03:51:55.222Z,99414.45
2023-04-13T03:55:52.549Z,99415.16
2023-04-13T03:59:57.434Z,99417.70
2023-04-13T04:04:14.411Z,99415.90
2023-04-13T04:08:15.752Z,99418.95
2023-04-13T04:12:14.404Z,99421.30
2023-04-13T04:16:16.431Z,99421.52
2023-04-13T04:20:16.727Z,99430.42
2023-04-13T04:24:17.957Z,99436.73
2023-04-13T04:28:15.642Z,99441.31
2023-04-13T04:32:16.623Z,99445.09
2023-04-13T04:36:22.130Z,99450.76
2023-04-13T04:40:26.586Z,99454.90
2023-04-13T04:44:29.852Z,99461.84
2023-04-13T04:48:27.593Z,99470.83
2023-04-13T04:52:37.305Z,99473.42
2023-04-13T04:56:41.340Z,99480.53
2023-04-13T05:00:41.484Z,99480.30
2023-04-13T05:04:48.476Z,99473.36
2023-04-13T05:08:53.099Z,99463.44
2023-04-13T05:12:52.377Z,99451.43
2023-04-13T05:17:02.916Z,99457.20
2023-04-13T05:21:03.624Z,99466.50
2023-04-13T05:25:01.226Z,99467.27
2023-04-13T05:29:01.615Z,99469.60
2023-04-13T05:33:08.580Z,99468.27
2023-04-13T05:36:51.429Z,99467.10
2023-04-13T05:40:54.874Z,99460.79
2023-04-13T05:45:03.215Z,99460.67
2023-04-13T05:48:46.454Z,99461.85
2023-04-13T05:52:50.776Z,99462.79
2023-04-13T05:56:47.877Z,99459.09
2023-04-13T06:00:51.463Z,99450.65
2023-04-13T06:04:50.944Z,99451.61
2023-04-13T06:08:54.108Z,99454.67
2023-04-13T06:12:57.091Z,99455.61
2023-04-13T06:17:00.825Z,99450.35
2023-04-13T06:21:00.588Z,99455.17
2023-04-13T06:24:58.717Z,99444.51
2023-04-13T06:28:47.523Z,99453.16
2023-04-13T06:32:48.898Z,99463.36
2023-04-13T06:36:51.441Z,99472.96
2023-04-13T06:40:57.464Z,99475.27
2023-04-13T06:44:57.509Z,99481.63
2023-04-13T06:49:00.725Z,99487.45
2023-04-13T06:52:59.428Z,99492.39
2023-04-13T06:57:03.625Z,99498.50
2023-04-13T07:01:00.680Z,99500.80
2023-04-13T07:05:08.777Z,99509.41
2023-04-13T07:09:09.565Z,99509.02
2023-04-13T07:13:14.951Z,99508.83
2023-04-13T07:17:13.717Z,99514.52
2023-04-13T07:21:16.004Z,99517.35
2023-04-13T07:25:30.725Z,99520.27
2023-04-13T07:29:35.089Z,99526.84
2023-04-13T07:33:37.656Z,99522.02
2023-04-13T07:37:40.638Z,99521.87
2023-04-13T07:41:41.525Z,99522.91
2023-04-13T07:45:51.645Z,99524.88
2023-04-13T07:49:51.819Z,99532.65
2023-04-13T07:53:56.597Z,99536.83
2023-04-13T07:57:58.825Z,99536.27
2023-04-13T08:02:02.751Z,99543.30
2023-04-13T08:06:02.672Z,99543.48
2023-04-13T08:10:06.635Z,99544.38
2023-04-13T08:14:06.767Z,99542.78
2023-04-13T08:18:11.508Z,99549.05
2023-04-13T08:22:11.865Z,99549.02
2023-04-13T08:26:14.634Z,99549.44
2023-04-13T08:30:15.896Z,99547.95
2023-04-13T08:34:31.381Z,99543.81
2023-04-13T08:38:28.877Z,99541.43
2023-04-13T08:42:29.962Z,99546.01
2023-04-13T08:46:26.961Z,99558.23
2023-04-13T08:50:33.423Z,99556.77
2023-04-13T08:54:31.737Z,99555.41
2023-04-13T08:58:32.746Z,99555.27
2023-04-13T09:02:30.081Z,99558.45
2023-04-13T09:06:35.501Z,99561.98
2023-04-13T09:10:36.870Z,99561.30
2023-04-13T09:14:43.822Z,99560.56
2023-04-13T09:18:48.294Z,99562.84
2023-04-13T09:22:49.264Z,99564.63
2023-04-13T09:26:43.595Z,99562.81
2023-04-13T09:30:43.818Z,99563.30
2023-04-13T09:34:40.862Z,99560.43
2023-04-13T09:38:44.515Z,99557.79
2023-04-13T09:42:40.932Z,99558.67
2023-04-13T09:46:41.663Z,99562.02
2023-04-13T09:50:39.144Z,99561.82
2023-04-13T09:54:40.023Z,99560.36
2023-04-13T09:58:37.172Z,99565.57
2023-04-13T10:02:36.950Z,99567.80
2023-04-13T10:06:31.427Z,99584.11
2023-04-13T10:10:31.962Z,99586.23
2023-04-13T10:14:26.954Z,99585.36
2023-04-13T10:18:27.953Z,99585.56
2023-04-13T10:22:25.230Z,99584.59
2023-04-13T10:26:26.028Z,99585.66
2023-04-13T10:30:23.255Z,99592.70
2023-04-13T10:34:24.920Z,99597.48
2023-04-13T10:38:25.709Z,99597.87
2023-04-13T10:42:26.151Z,99601.33
2023-04-13T10:46:24.395Z,99605.58
2023-04-13T10:50:24.914Z,99611.27
2023-04-13T10:54:19.275Z,99606.59
2023-04-13T10:58:21.115Z,99612.95
2023-04-13T11:02:19.033Z,99610.09
2023-04-13T11:06:17.642Z,99614.95
2023-04-13T11:10:16.166Z,99613.83
2023-04-13T11:14:19.171Z,99611.91
2023-04-13T11:18:16.235Z,99607.59
2023-04-13T11:22:16.980Z,99612.16
2023-04-13T11:26:15.027Z,99610.69
2023-04-13T11:30:19.247Z,99620.20
2023-04-13T11:34:20.585Z,99620.05
2023-04-13T11:38:22.511Z,99622.23
2023-04-13T11:42:19.206Z,99619.52
2023-04-13T11:46:20.008Z,99620.27
2023-04-13T11:50:17.089Z,99615.14
2023-04-13T11:54:17.723Z,99617.06
2023-04-13T11:58:12.249Z,99616.48
2023-04-13T12:02:22.827Z,99614.11
2023-04-13T12:06:20.792Z,99613.38
2023-04-13T12:10:24.553Z,99611.46
2023-04-13T12:14:07.024Z,99615.13
2023-04-13T12:18:14.690Z,99617.92
2023-04-13T12:22:15.063Z,99624.20
2023-04-13T12:26:49.875Z,99622.44
2023-04-13T12:30:37.880Z,99625.08
2023-04-13T12:34:36.334Z,99625.28
2023-04-13T12:38:41.331Z,99627.09
2023-04-13T12:42:44.566Z,99627.98
2023-04-13T12:46:44.531Z,99632.45
2023-04-13T12:50:47.559Z,99634.48
2023-04-13T12:54:47.263Z,99634.45
2023-04-13T12:58:53.757Z,99634.00
2023-04-13T13:03:02.906Z,99630.98
2023-04-13T13:07:16.668Z,99623.85
2023-04-13T13:11:23.313Z,99621.28
2023-04-13T13:15:26.099Z,99620.00
2023-04-13T13:19:26.232Z,99617.77
2023-04-13T13:23:29.564Z,99619.43
2023-04-13T13:28:05.472Z,99617.20
2023-04-13T13:31:52.908Z,99622.54
2023-04-13T13:35:53.213Z,99627.08
2023-04-13T13:39:56.390Z,99618.23
2023-04-13T13:43:39.857Z,99621.34
2023-04-13T13:47:43.754Z,99627.02
2023-04-13T13:51:43.332Z,99628.40
2023-04-13T13:55:48.834Z,99626.82
2023-04-13T13:59:54.850Z,99629.40
2023-04-13T14:03:54.494Z,99632.20
2023-04-13T14:07:58.912Z,99638.39
2023-04-13T14:11:59.249Z,99640.27
2023-04-13T14:16:06.168Z,99649.75
2023-04-13T14:20:07.203Z,99651.73
2023-04-13T14:24:10.368Z,99655.61
2023-04-13T14:28:10.228Z,99655.92
2023-04-13T14:32:21.352Z,99658.87
2023-04-13T14:36:22.417Z,99659.63
2023-04-13T14:40:29.261Z,99659.52
2023-04-13T14:44:27.181Z,99665.01
2023-04-13T14:48:28.394Z,99669.72
2023-04-13T14:52:27.258Z,99667.42
2023-04-13T14:56:29.384Z,99665.26
2023-04-13T15:00:28.020Z,99666.95
2023-04-13T15:04:41.325Z,99668.58
2023-04-13T15:08:41.140Z,99669.94
2023-04-13T15:12:48.735Z,99672.80
2023-04-13T15:16:47.379Z,99669.23
2023-04-13T15:20:48.213Z,99669.56
2023-04-13T15:24:48.687Z,99671.45
2023-04-13T15:28:49.716Z,99671.56
2023-04-13T15:32:48.674Z,99672.48
2023-04-13T15:36:49.602Z,99669.24
2023-04-13T15:40:48.705Z,99670.84
2023-04-13T15:44:51.453Z,99672.22
2023-04-13T15:48:51.141Z,99670.27
2023-04-13T15:52:51.662Z,99671.65
2023-04-13T15:56:50.360Z,99674.44
2023-04-13T16:00:55.347Z,99677.34
2023-04-13T16:04:54.869Z,99682.75
2023-04-13T16:08:56.332Z,99683.13
2023-04-13T16:12:55.612Z,99687.48
2023-04-13T16:16:57.452Z,99690.27
2023-04-13T16:20:59.005Z,99688.59
2023-04-13T16:24:59.654Z,99691.17
2023-04-13T16:28:59.733Z,99688.07
2023-04-13T16:33:03.087Z,99692.17
2023-04-13T16:36:44.426Z,99691.69
2023-04-13T16:40:45.642Z,99692.55
2023-04-13T16:44:49.532Z,99691.72
2023-04-13T16:48:50.468Z,99697.81
2023-04-13T16:52:51.558Z,99694.63
2023-04-13T16:56:50.418Z,99700.77
2023-04-13T17:00:51.743Z,99704.87
2023-04-13T17:04:51.073Z,99709.02
2023-04-13T17:08:56.759Z,99718.73
2023-04-13T17:12:55.419Z,99724.41
2023-04-13T17:16:56.569Z,99728.33
2023-04-13T17:20:53.803Z,99734.11
2023-04-13T17:24:54.651Z,99737.80
2023-04-13T17:28:51.720Z,99744.47
2023-04-13T17:32:52.809Z,99748.39
2023-04-13T17:36:49.810Z,99755.04
2023-04-13T17:40:50.388Z,99758.84
2023-04-13T17:44:48.621Z,99760.19
2023-04-13T17:48:53.809Z,99765.27
2023-04-13T17:52:50.923Z,99766.20
2023-04-13T17:56:52.882Z,99766.89
2023-04-13T18:00:49.808Z,99768.84
2023-04-13T18:04:54.859Z,99773.67
2023-04-13T18:08:47.235Z,99774.56
2023-04-13T18:12:33.748Z,99777.24
2023-04-13T18:16:21.676Z,99777.73
2023-04-13T18:20:08.197Z,99779.80
2023-04-13T18:24:03.099Z,99783.42
2023-04-13T18:28:00.974Z,99787.35
2023-04-13T18:32:02.279Z,99786.90
2023-04-13T18:35:59.938Z,99793.02
2023-04-13T18:40:00.419Z,99791.26
2023-04-13T18:43:56.496Z,99788.11
2023-04-13T18:47:56.703Z,99787.77
2023-04-13T18:51:42.658Z,99783.73
2023-04-13T18:55:28.858Z,99788.95
2023-04-13T18:59:15.427Z,99787.23
2023-04-13T19:03:09.218Z,99785.84
2023-04-13T19:07:05.293Z,99788.83
2023-04-13T19:11:06.518Z,99787.17
2023-04-13T19:15:03.677Z,99791.27
2023-04-13T19:19:04.934Z,99793.52
2023-04-13T19:23:02.199Z,99794.66
2023-04-13T19:27:03.060Z,99795.10
2023-04-13T19:31:01.465Z,99795.56
2023-04-13T19:35:06.796Z,99798.51
2023-04-13T19:38:53.069Z,99793.36
2023-04-13T19:42:39.199Z,99790.77
2023-04-13T19:46:25.817Z,99796.31
2023-04-13T19:50:11.805Z,99794.36
2023-04-13T19:54:06.546Z,99798.23
2023-04-13T19:58:06.930Z,99795.85
2023-04-13T20:02:11.082Z,99797.70
2023-04-13T20:06:12.870Z,99796.87
2023-04-13T20:10:10.292Z,99800.56
2023-04-13T20:14:12.682Z,99792.05
2023-04-13T20:18:08.799Z,99795.81
2023-04-13T20:22:09.976Z,99801.47
2023-04-13T20:26:03.984Z,99801.51
2023-04-13T20:29:50.829Z,99795.82
2023-04-13T20:33:39.153Z,99793.90
2023-04-13T20:37:38.237Z,99799.59
2023-04-13T20:41:41.307Z,99798.95
2023-04-13T20:45:39.929Z,99808.66
2023-04-13T20:49:43.876Z,99810.50
2023-04-13T20:53:43.838Z,99806.38
2023-04-13T20:57:52.057Z,99805.53
2023-04-13T21:01:50.992Z,99804.61
2023-04-13T21:05:55.146Z,99810.36
2023-04-13T21:09:55.069Z,99816.69
2023-04-13T21:13:58.211Z,99818.34
2023-04-13T21:17:57.889Z,99817.80
2023-04-13T21:22:03.041Z,99822.45
2023-04-13T21:26:02.108Z,99817.60
2023-04-13T21:30:06.134Z,99811.20
2023-04-13T21:34:06.095Z,99809.73
2023-04-13T21:38:09.018Z,99814.26
2023-04-13T21:42:08.192Z,99821.31
2023-04-13T21:46:10.583Z,99817.34
2023-04-13T21:50:09.043Z,99818.71
2023-04-13T21:54:01.780Z,99816.71
2023-04-13T21:57:48.225Z,99820.45
2023-04-13T22:01:34.760Z,99819.54
2023-04-13T22:05:21.114Z,99823.45
2023-04-13T22:09:09.208Z,99818.23
2023-04-13T22:12:55.698Z,99817.73
2023-04-13T22:16:44.026Z,99813.77
2023-04-13T22:20:30.444Z,99815.83
2023-04-13T22:24:22.707Z,99816.95
2023-04-13T22:28:09.080Z,99818.10
2023-04-13T22:32:02.561Z,99813.58
2023-04-13T22:36:07.153Z,99816.05
2023-04-13T22:40:10.155Z,99821.49
2023-04-13T22:44:09.153Z,99821.09
2023-04-13T22:48:13.158Z,99823.29
2023-04-13T22:52:13.189Z,99821.19
2023-04-13T22:55:59.534Z,99821.88
2023-04-13T22:59:49.079Z,99821.75
2023-04-13T23:03:43.516Z,99821.15
2023-04-13T23:07:49.191Z,99816.22
2023-04-13T23:11:53.029Z,99817.42
2023-04-13T23:15:53.364Z,99816.85
2023-04-13T23:19:57.740Z,99819.70
2023-04-13T23:23:57.279Z,99824.38
2023-04-13T23:27:55.299Z,99830.70
2023-04-13T23:31:50.570Z,99828.41
2023-04-13T23:35:36.971Z,99833.98
2023-04-13T23:39:37.592Z,99838.04
2023-04-13T23:43:30.812Z,99833.07
2023-04-13T23:47:25.439Z,99837.21
2023-04-13T23:51:18.386Z,99837.33
2023-04-13T23:55:12.970Z,99844.13
2023-04-13T23:59:26.821Z,99845.95
